Aviation Digital Data Service (ADDS)

Output produced by METARs form (0829 UTC 17 November 2018)
found at http://www.aviationweather.gov/metar/data/
 
VVDN 170800Z 08007KT 050V120 7000 FEW015 30/23 Q1012 NOSIG
TAF VVDN 170500Z 1706/1806 12008KT 8000 SCT013 SCT060 
     TEMPO 1709/1714 4000 SHRA 
     BECMG 1721/1722 4000 BR 
     BECMG 1800/1801 8000 NSW
       
VVNB 170800Z 12009KT 9999 BKN017 29/22 Q1010 NOSIG
TAF VVNB 170500Z 1706/1806 12007KT 8000 SCT015 
     BECMG 1716/1717 3500 BR 
     FM172000 05007KT 2500 RA BR FEW007 BKN013 
     PROB30 1721/1801 1200 RA BR 
     FM180200 13007KT 7000 NSW SCT015
       
VVTS 170800Z 19004KT 140V220 8000 SCT015 BKN040 30/22 Q1009 NOSIG
TAF VVTS 170500Z 1706/1812 11006KT 9999 SCT015 SCT040 
     TEMPO 1707/1712 12015G26KT 3000 TSRA BKN013 SCT015CB 
     TEMPO 1715/1719 5000 TSRA BKN013 FEW015CB 
     TEMPO 1807/1812 3000 TSRA BKN013 SCT015CB